sensor_id;sensor_type;location;lat;lon;timestamp;pressure;altitude;pressure_sealevel;temperature;humidity
45369;BME280;51342;55.250;37.668;2023-07-28T00:00:28;98095.91;;;21.18;79.21
45369;BME280;51342;55.250;37.668;2023-07-28T00:02:59;98102.03;;;21.18;79.16
45369;BME280;51342;55.250;37.668;2023-07-28T00:05:31;98105.56;;;21.17;79.08
45369;BME280;51342;55.250;37.668;2023-07-28T00:08:02;98115.19;;;21.17;79.33
45369;BME280;51342;55.250;37.668;2023-07-28T00:10:40;98110.84;;;21.13;79.39
45369;BME280;51342;55.250;37.668;2023-07-28T00:13:12;98105.63;;;21.11;79.57
45369;BME280;51342;55.250;37.668;2023-07-28T00:15:43;98089.84;;;21.08;79.14
45369;BME280;51342;55.250;37.668;2023-07-28T00:18:15;98083.69;;;21.12;79.39
45369;BME280;51342;55.250;37.668;2023-07-28T00:20:46;98087.22;;;21.11;79.19
45369;BME280;51342;55.250;37.668;2023-07-28T00:23:18;98085.47;;;21.10;79.32
45369;BME280;51342;55.250;37.668;2023-07-28T00:25:50;98080.25;;;21.06;79.20
45369;BME280;51342;55.250;37.668;2023-07-28T00:28:21;98075.00;;;21.06;79.23
45369;BME280;51342;55.250;37.668;2023-07-28T00:30:53;98077.63;;;21.04;79.09
45369;BME280;51342;55.250;37.668;2023-07-28T00:33:24;98073.31;;;20.97;78.90
45369;BME280;51342;55.250;37.668;2023-07-28T00:35:55;98077.66;;;21.01;78.87
45369;BME280;51342;55.250;37.668;2023-07-28T00:38:27;98072.44;;;20.98;78.82
45369;BME280;51342;55.250;37.668;2023-07-28T00:41:01;98072.50;;;20.94;78.51
45369;BME280;51342;55.250;37.668;2023-07-28T00:43:32;98071.59;;;20.93;78.95
45369;BME280;51342;55.250;37.668;2023-07-28T00:46:04;98064.63;;;20.90;78.69
45369;BME280;51342;55.250;37.668;2023-07-28T00:48:35;98068.16;;;20.86;78.65
45369;BME280;51342;55.250;37.668;2023-07-28T00:51:09;98067.34;;;20.83;78.88
45369;BME280;51342;55.250;37.668;2023-07-28T00:53:41;98069.13;;;20.79;79.13
45369;BME280;51342;55.250;37.668;2023-07-28T00:56:13;98070.91;;;20.77;79.07
45369;BME280;51342;55.250;37.668;2023-07-28T00:58:45;98067.41;;;20.74;79.04
45369;BME280;51342;55.250;37.668;2023-07-28T01:01:16;98066.56;;;20.72;79.11
45369;BME280;51342;55.250;37.668;2023-07-28T01:03:48;98070.09;;;20.71;79.31
45369;BME280;51342;55.250;37.668;2023-07-28T01:09:12;98068.41;;;20.65;79.57
45369;BME280;51342;55.250;37.668;2023-07-28T01:11:58;98066.63;;;20.64;79.55
45369;BME280;51342;55.250;37.668;2023-07-28T01:17:18;98071.88;;;20.67;79.90
45369;BME280;51342;55.250;37.668;2023-07-28T01:19:51;98063.06;;;20.70;79.75
45369;BME280;51342;55.250;37.668;2023-07-28T01:28:23;98056.19;;;20.59;79.44
45369;BME280;51342;55.250;37.668;2023-07-28T01:30:54;98049.19;;;20.55;79.20
45369;BME280;51342;55.250;37.668;2023-07-28T01:33:26;98048.34;;;20.55;79.34
45369;BME280;51342;55.250;37.668;2023-07-28T01:35:57;98049.25;;;20.51;79.46
45369;BME280;51342;55.250;37.668;2023-07-28T01:38:32;98045.78;;;20.46;79.35
45369;BME280;51342;55.250;37.668;2023-07-28T01:41:03;98049.28;;;20.43;79.10
45369;BME280;51342;55.250;37.668;2023-07-28T01:43:35;98049.25;;;20.45;78.93
45369;BME280;51342;55.250;37.668;2023-07-28T01:46:06;98055.44;;;20.42;78.86
45369;BME280;51342;55.250;37.668;2023-07-28T01:48:38;98053.66;;;20.41;78.91
45369;BME280;51342;55.250;37.668;2023-07-28T01:51:09;98047.56;;;20.37;79.29
45369;BME280;51342;55.250;37.668;2023-07-28T01:53:40;98055.44;;;20.36;79.41
45369;BME280;51342;55.250;37.668;2023-07-28T01:56:12;98067.72;;;20.37;79.52
45369;BME280;51342;55.250;37.668;2023-07-28T01:58:43;98060.69;;;20.39;80.25
45369;BME280;51342;55.250;37.668;2023-07-28T02:01:15;98054.53;;;20.42;80.17
45369;BME280;51342;55.250;37.668;2023-07-28T02:03:46;98038.75;;;20.42;80.66
45369;BME280;51342;55.250;37.668;2023-07-28T02:06:17;98029.13;;;20.45;80.24
45369;BME280;51342;55.250;37.668;2023-07-28T02:08:49;98020.38;;;20.46;80.43
45369;BME280;51342;55.250;37.668;2023-07-28T02:11:20;98050.16;;;20.48;80.68
45369;BME280;51342;55.250;37.668;2023-07-28T02:13:52;98043.16;;;20.46;80.91
45369;BME280;51342;55.250;37.668;2023-07-28T02:16:23;98044.84;;;20.51;80.60
45369;BME280;51342;55.250;37.668;2023-07-28T02:18:55;98053.59;;;20.52;80.64
45369;BME280;51342;55.250;37.668;2023-07-28T02:21:26;98061.47;;;20.52;80.75
45369;BME280;51342;55.250;37.668;2023-07-28T02:23:59;98064.09;;;20.53;80.95
45369;BME280;51342;55.250;37.668;2023-07-28T02:26:30;98066.72;;;20.55;81.17
45369;BME280;51342;55.250;37.668;2023-07-28T02:29:02;98076.31;;;20.57;81.38
45369;BME280;51342;55.250;37.668;2023-07-28T02:31:33;98078.06;;;20.58;81.49
45369;BME280;51342;55.250;37.668;2023-07-28T02:34:05;98065.78;;;20.59;81.50
45369;BME280;51342;55.250;37.668;2023-07-28T02:36:37;98052.66;;;20.60;81.87
45369;BME280;51342;55.250;37.668;2023-07-28T02:39:08;98055.28;;;20.62;81.66
45369;BME280;51342;55.250;37.668;2023-07-28T02:41:39;98049.16;;;20.58;81.35
45369;BME280;51342;55.250;37.668;2023-07-28T02:44:11;98064.00;;;20.66;81.45
45369;BME280;51342;55.250;37.668;2023-07-28T02:46:42;98076.28;;;20.65;81.70
45369;BME280;51342;55.250;37.668;2023-07-28T02:49:13;98077.13;;;20.67;81.62
45369;BME280;51342;55.250;37.668;2023-07-28T02:51:45;98078.00;;;20.68;81.46
45369;BME280;51342;55.250;37.668;2023-07-28T02:54:17;98079.72;;;20.69;81.64
45369;BME280;51342;55.250;37.668;2023-07-28T02:56:48;98077.09;;;20.69;81.69
45369;BME280;51342;55.250;37.668;2023-07-28T02:59:21;98077.97;;;20.71;81.59
45369;BME280;51342;55.250;37.668;2023-07-28T03:01:52;98088.47;;;20.72;81.36
45369;BME280;51342;55.250;37.668;2023-07-28T03:04:24;98101.56;;;20.75;81.39
45369;BME280;51342;55.250;37.668;2023-07-28T03:07:18;98111.25;;;20.72;81.37
45369;BME280;51342;55.250;37.668;2023-07-28T03:09:55;98141.91;;;20.70;81.44
45369;BME280;51342;55.250;37.668;2023-07-28T03:12:26;98167.31;;;20.72;81.27
45369;BME280;51342;55.250;37.668;2023-07-28T03:17:52;98172.59;;;20.71;81.56
45369;BME280;51342;55.250;37.668;2023-07-28T03:20:25;98225.16;;;20.71;81.22
45369;BME280;51342;55.250;37.668;2023-07-28T03:22:57;98301.38;;;20.71;81.27
45369;BME280;51342;55.250;37.668;2023-07-28T03:25:28;98365.31;;;20.68;81.35
45369;BME280;51342;55.250;37.668;2023-07-28T03:31:59;98313.75;;;20.46;82.43
45369;BME280;51342;55.250;37.668;2023-07-28T03:34:36;98286.69;;;20.18;82.65
45369;BME280;51342;55.250;37.668;2023-07-28T03:37:13;98213.09;;;20.30;81.91
45369;BME280;51342;55.250;37.668;2023-07-28T03:39:45;98165.81;;;20.31;81.31
45369;BME280;51342;55.250;37.668;2023-07-28T03:42:16;98125.53;;;20.32;81.10
45369;BME280;51342;55.250;37.668;2023-07-28T03:44:47;98112.41;;;20.29;80.96
45369;BME280;51342;55.250;37.668;2023-07-28T03:47:19;98080.94;;;20.26;81.17
45369;BME280;51342;55.250;37.668;2023-07-28T03:49:52;98050.34;;;20.21;81.02
45369;BME280;51342;55.250;37.668;2023-07-28T03:52:23;98017.09;;;20.17;80.71
45369;BME280;51342;55.250;37.668;2023-07-28T03:54:55;97967.22;;;20.13;81.00
45369;BME280;51342;55.250;37.668;2023-07-28T03:57:26;97936.66;;;20.09;80.73
45369;BME280;51342;55.250;37.668;2023-07-28T03:59:57;97948.06;;;20.04;80.59
45369;BME280;51342;55.250;37.668;2023-07-28T04:02:28;97957.72;;;20.03;80.45
45369;BME280;51342;55.250;37.668;2023-07-28T04:05:00;97958.56;;;20.04;80.58
45369;BME280;51342;55.250;37.668;2023-07-28T04:07:31;97972.56;;;20.04;80.57
45369;BME280;51342;55.250;37.668;2023-07-28T04:10:04;97981.31;;;20.05;80.66
45369;BME280;51342;55.250;37.668;2023-07-28T04:12:35;97977.81;;;20.04;80.35
45369;BME280;51342;55.250;37.668;2023-07-28T04:15:07;97962.09;;;20.03;80.60
45369;BME280;51342;55.250;37.668;2023-07-28T04:17:39;97978.66;;;20.06;80.61
45369;BME280;51342;55.250;37.668;2023-07-28T04:20:11;97976.00;;;20.11;80.89
45369;BME280;51342;55.250;37.668;2023-07-28T04:22:42;97969.81;;;20.21;81.19
45369;BME280;51342;55.250;37.668;2023-07-28T04:25:15;97965.34;;;20.28;81.56
45369;BME280;51342;55.250;37.668;2023-07-28T04:27:50;97977.53;;;20.35;81.12
45369;BME280;51342;55.250;37.668;2023-07-28T04:30:21;97984.53;;;20.36;80.43
45369;BME280;51342;55.250;37.668;2023-07-28T04:32:53;97986.28;;;20.38;80.35
45369;BME280;51342;55.250;37.668;2023-07-28T04:35:32;98002.91;;;20.39;79.97
45369;BME280;51342;55.250;37.668;2023-07-28T04:38:15;98009.88;;;20.43;79.82
45369;BME280;51342;55.250;37.668;2023-07-28T04:41:00;98021.22;;;20.50;79.00
45369;BME280;51342;55.250;37.668;2023-07-28T04:43:50;98025.59;;;20.54;79.12
45369;BME280;51342;55.250;37.668;2023-07-28T04:46:21;98035.13;;;20.61;78.91
45369;BME280;51342;55.250;37.668;2023-07-28T04:48:57;98038.50;;;20.74;78.92
45369;BME280;51342;55.250;37.668;2023-07-28T04:51:55;98045.38;;;20.87;78.59
45369;BME280;51342;55.250;37.668;2023-07-28T04:54:26;98041.78;;;20.96;78.80
45369;BME280;51342;55.250;37.668;2023-07-28T04:56:57;98041.75;;;20.99;78.49
45369;BME280;51342;55.250;37.668;2023-07-28T04:59:35;98051.34;;;21.06;78.57
45369;BME280;51342;55.250;37.668;2023-07-28T05:02:06;98046.03;;;21.10;79.27
45369;BME280;51342;55.250;37.668;2023-07-28T05:04:38;98034.50;;;21.19;78.88
45369;BME280;51342;55.250;37.668;2023-07-28T05:07:09;98039.72;;;21.24;78.81
45369;BME280;51342;55.250;37.668;2023-07-28T05:09:41;98038.78;;;21.31;77.94
45369;BME280;51342;55.250;37.668;2023-07-28T05:12:12;98041.31;;;21.38;79.01
45369;BME280;51342;55.250;37.668;2023-07-28T05:14:48;98035.09;;;21.47;79.23
45369;BME280;51342;55.250;37.668;2023-07-28T05:17:23;98036.72;;;21.57;78.42
45369;BME280;51342;55.250;37.668;2023-07-28T05:20:18;98037.47;;;21.65;78.62
45369;BME280;51342;55.250;37.668;2023-07-28T05:23:09;98035.63;;;21.74;78.88
45369;BME280;51342;55.250;37.668;2023-07-28T05:25:41;98044.31;;;21.77;78.38
45369;BME280;51342;55.250;37.668;2023-07-28T05:28:12;98042.47;;;21.85;78.19
45369;BME280;51342;55.250;37.668;2023-07-28T05:30:46;98046.78;;;21.91;77.71
45369;BME280;51342;55.250;37.668;2023-07-28T05:33:17;98046.72;;;21.94;77.37
45369;BME280;51342;55.250;37.668;2023-07-28T05:36:02;98040.50;;;21.98;77.08
45369;BME280;51342;55.250;37.668;2023-07-28T05:38:34;98046.53;;;22.06;78.07
45369;BME280;51342;55.250;37.668;2023-07-28T05:41:05;98055.22;;;22.14;77.29
45369;BME280;51342;55.250;37.668;2023-07-28T05:43:38;98056.06;;;22.18;76.76
45369;BME280;51342;55.250;37.668;2023-07-28T05:46:09;98055.06;;;22.23;77.61
45369;BME280;51342;55.250;37.668;2023-07-28T05:48:41;98047.09;;;22.28;77.38
45369;BME280;51342;55.250;37.668;2023-07-28T05:51:13;98045.16;;;22.39;77.33
45369;BME280;51342;55.250;37.668;2023-07-28T05:53:44;98050.13;;;22.59;77.77
45369;BME280;51342;55.250;37.668;2023-07-28T05:56:16;98055.09;;;22.76;77.08
45369;BME280;51342;55.250;37.668;2023-07-28T05:58:49;98049.53;;;22.93;75.97
45369;BME280;51342;55.250;37.668;2023-07-28T06:01:21;98059.03;;;23.03;74.37
45369;BME280;51342;55.250;37.668;2023-07-28T06:04:31;98062.41;;;23.08;73.79
45369;BME280;51342;55.250;37.668;2023-07-28T06:07:05;98084.31;;;23.15;73.01
45369;BME280;51342;55.250;37.668;2023-07-28T06:09:39;98078.91;;;23.21;72.84
45369;BME280;51342;55.250;37.668;2023-07-28T06:12:10;98093.78;;;23.23;72.98
45369;BME280;51342;55.250;37.668;2023-07-28T06:14:42;98114.00;;;23.26;72.31
45369;BME280;51342;55.250;37.668;2023-07-28T06:17:15;98145.66;;;23.24;72.82
45369;BME280;51342;55.250;37.668;2023-07-28T06:19:47;98195.91;;;23.18;72.66
45369;BME280;51342;55.250;37.668;2023-07-28T06:22:18;98247.13;;;23.07;73.13
45369;BME280;51342;55.250;37.668;2023-07-28T06:24:50;98317.63;;;22.95;73.15
45369;BME280;51342;55.250;37.668;2023-07-28T06:27:22;98283.53;;;22.80;72.88
45369;BME280;51342;55.250;37.668;2023-07-28T06:29:53;98290.78;;;22.63;72.83
45369;BME280;51342;55.250;37.668;2023-07-28T06:32:25;98224.25;;;22.47;73.23
45369;BME280;51342;55.250;37.668;2023-07-28T06:34:57;98204.25;;;22.32;74.22
45369;BME280;51342;55.250;37.668;2023-07-28T06:37:28;98173.66;;;22.22;73.46
45369;BME280;51342;55.250;37.668;2023-07-28T06:40:00;98142.19;;;22.13;74.16
45369;BME280;51342;55.250;37.668;2023-07-28T06:42:33;98127.38;;;22.01;74.35
45369;BME280;51342;55.250;37.668;2023-07-28T06:45:07;98122.19;;;21.95;75.28
45369;BME280;51342;55.250;37.668;2023-07-28T06:47:38;98101.19;;;21.89;75.60
45369;BME280;51342;55.250;37.668;2023-07-28T06:50:11;98121.50;;;21.81;75.92
45369;BME280;51342;55.250;37.668;2023-07-28T06:52:43;98124.19;;;21.76;75.54
45369;BME280;51342;55.250;37.668;2023-07-28T06:55:16;98135.66;;;21.70;76.19
45369;BME280;51342;55.250;37.668;2023-07-28T06:57:48;98140.09;;;21.68;75.94
45369;BME280;51342;55.250;37.668;2023-07-28T07:00:25;98155.09;;;21.59;76.46
45369;BME280;51342;55.250;37.668;2023-07-28T07:02:57;98156.84;;;21.60;76.75
45369;BME280;51342;55.250;37.668;2023-07-28T07:05:28;98155.06;;;21.63;77.25
45369;BME280;51342;55.250;37.668;2023-07-28T07:07:59;98153.31;;;21.61;76.15
45369;BME280;51342;55.250;37.668;2023-07-28T07:10:34;98163.88;;;21.59;77.24
45369;BME280;51342;55.250;37.668;2023-07-28T07:13:05;98155.09;;;21.59;76.98
45369;BME280;51342;55.250;37.668;2023-07-28T07:15:37;98143.75;;;21.54;77.58
45369;BME280;51342;55.250;37.668;2023-07-28T07:20:53;98134.91;;;21.59;77.16
45369;BME280;51342;55.250;37.668;2023-07-28T07:23:24;98126.00;;;21.71;76.83
45369;BME280;51342;55.250;37.668;2023-07-28T07:25:56;98125.03;;;21.78;77.24
45369;BME280;51342;55.250;37.668;2023-07-28T07:28:28;98128.47;;;21.85;77.40
45369;BME280;51342;55.250;37.668;2023-07-28T07:31:02;98124.84;;;21.93;78.08
45369;BME280;51342;55.250;37.668;2023-07-28T07:33:34;98119.38;;;22.10;77.87
45369;BME280;51342;55.250;37.668;2023-07-28T07:36:18;98128.03;;;22.20;76.56
45369;BME280;51342;55.250;37.668;2023-07-28T07:38:49;98126.13;;;22.30;76.82
45369;BME280;51342;55.250;37.668;2023-07-28T07:41:22;98117.97;;;22.45;76.38
45369;BME280;51342;55.250;37.668;2023-07-28T07:43:54;98118.56;;;22.62;76.61
45369;BME280;51342;55.250;37.668;2023-07-28T07:46:26;98122.59;;;22.88;77.08
45369;BME280;51342;55.250;37.668;2023-07-28T07:48:57;98125.81;;;23.05;76.94
45369;BME280;51342;55.250;37.668;2023-07-28T07:51:29;98126.47;;;23.16;75.18
45369;BME280;51342;55.250;37.668;2023-07-28T07:54:02;98118.44;;;23.22;75.09
45369;BME280;51342;55.250;37.668;2023-07-28T07:56:34;98124.41;;;23.34;74.93
45369;BME280;51342;55.250;37.668;2023-07-28T07:59:05;98115.44;;;23.41;74.77
45369;BME280;51342;55.250;37.668;2023-07-28T08:01:37;98118.97;;;23.41;74.41
45369;BME280;51342;55.250;37.668;2023-07-28T08:04:09;98138.22;;;23.46;74.74
45369;BME280;51342;55.250;37.668;2023-07-28T08:06:42;98149.38;;;23.62;74.88
45369;BME280;51342;55.250;37.668;2023-07-28T08:09:13;98139.31;;;23.81;72.67
45369;BME280;51342;55.250;37.668;2023-07-28T08:11:45;98132.00;;;23.94;72.94
45369;BME280;51342;55.250;37.668;2023-07-28T08:14:17;98146.69;;;24.07;71.48
45369;BME280;51342;55.250;37.668;2023-07-28T08:16:49;98154.63;;;24.07;71.47
45369;BME280;51342;55.250;37.668;2023-07-28T08:19:21;98148.44;;;24.08;72.07
45369;BME280;51342;55.250;37.668;2023-07-28T08:21:52;98136.84;;;24.14;72.53
45369;BME280;51342;55.250;37.668;2023-07-28T08:24:23;98116.50;;;24.19;72.32
45369;BME280;51342;55.250;37.668;2023-07-28T08:26:55;98117.91;;;24.35;72.81
45369;BME280;51342;55.250;37.668;2023-07-28T08:29:26;98142.97;;;24.56;71.44
45369;BME280;51342;55.250;37.668;2023-07-28T08:31:57;98148.69;;;24.75;71.05
45369;BME280;51342;55.250;37.668;2023-07-28T08:34:29;98144.75;;;24.91;70.12
45369;BME280;51342;55.250;37.668;2023-07-28T08:37:00;98150.66;;;25.02;68.42
45369;BME280;51342;55.250;37.668;2023-07-28T08:39:32;98144.41;;;25.05;66.76
45369;BME280;51342;55.250;37.668;2023-07-28T08:42:04;98147.16;;;25.02;68.52
45369;BME280;51342;55.250;37.668;2023-07-28T08:44:35;98144.59;;;24.97;68.98
45369;BME280;51342;55.250;37.668;2023-07-28T08:47:07;98156.22;;;24.90;68.10
45369;BME280;51342;55.250;37.668;2023-07-28T08:49:38;98163.50;;;24.82;69.04
45369;BME280;51342;55.250;37.668;2023-07-28T08:52:10;98171.59;;;24.76;69.88
45369;BME280;51342;55.250;37.668;2023-07-28T08:54:41;98187.56;;;24.71;70.19
45369;BME280;51342;55.250;37.668;2023-07-28T08:57:13;98201.13;;;24.56;67.65
45369;BME280;51342;55.250;37.668;2023-07-28T08:59:48;98217.13;;;24.50;67.82
45369;BME280;51342;55.250;37.668;2023-07-28T09:02:20;98224.44;;;24.39;68.30
45369;BME280;51342;55.250;37.668;2023-07-28T09:04:51;98225.53;;;24.27;68.45
45369;BME280;51342;55.250;37.668;2023-07-28T09:07:23;98239.00;;;24.15;68.93
45369;BME280;51342;55.250;37.668;2023-07-28T09:09:59;98260.41;;;24.02;68.58
45369;BME280;51342;55.250;37.668;2023-07-28T09:12:32;98267.63;;;23.93;68.73
45369;BME280;51342;55.250;37.668;2023-07-28T09:15:05;98273.94;;;23.86;69.98
45369;BME280;51342;55.250;37.668;2023-07-28T09:20:35;98256.78;;;23.60;69.55
45369;BME280;51342;55.250;37.668;2023-07-28T09:23:08;98248.94;;;23.54;70.76
45369;BME280;51342;55.250;37.668;2023-07-28T09:25:40;98227.94;;;23.48;70.95
45369;BME280;51342;55.250;37.668;2023-07-28T09:28:12;98192.91;;;23.40;71.40
45369;BME280;51342;55.250;37.668;2023-07-28T09:30:46;98180.84;;;23.26;71.90
45369;BME280;51342;55.250;37.668;2023-07-28T09:33:31;98235.53;;;23.17;72.64
45369;BME280;51342;55.250;37.668;2023-07-28T09:36:11;98267.22;;;23.14;73.17
45369;BME280;51342;55.250;37.668;2023-07-28T09:38:43;98266.41;;;23.09;73.02
45369;BME280;51342;55.250;37.668;2023-07-28T09:41:15;98278.84;;;23.04;73.64
45369;BME280;51342;55.250;37.668;2023-07-28T09:43:46;98271.00;;;22.99;72.56
45369;BME280;51342;55.250;37.668;2023-07-28T09:46:22;98273.72;;;22.93;72.85
45369;BME280;51342;55.250;37.668;2023-07-28T09:48:56;98272.91;;;22.88;73.18
45369;BME280;51342;55.250;37.668;2023-07-28T09:51:31;98257.16;;;22.80;72.67
45369;BME280;51342;55.250;37.668;2023-07-28T09:54:10;98258.09;;;22.74;73.20
45369;BME280;51342;55.250;37.668;2023-07-28T09:56:44;98268.75;;;22.68;73.31
45369;BME280;51342;55.250;37.668;2023-07-28T09:59:18;98272.34;;;22.63;74.20
45369;BME280;51342;55.250;37.668;2023-07-28T10:01:50;98268.91;;;22.56;74.67
45369;BME280;51342;55.250;37.668;2023-07-28T10:04:22;98266.31;;;22.55;74.70
45369;BME280;51342;55.250;37.668;2023-07-28T10:06:54;98246.19;;;22.49;74.70
45369;BME280;51342;55.250;37.668;2023-07-28T10:09:30;98233.03;;;22.47;75.13
45369;BME280;51342;55.250;37.668;2023-07-28T10:12:04;98226.91;;;22.47;75.06
45369;BME280;51342;55.250;37.668;2023-07-28T10:14:38;98193.50;;;22.46;76.05
45369;BME280;51342;55.250;37.668;2023-07-28T10:17:15;98201.41;;;22.46;75.87
45369;BME280;51342;55.250;37.668;2023-07-28T10:19:48;98198.78;;;22.47;76.51
45369;BME280;51342;55.250;37.668;2023-07-28T10:22:20;98202.13;;;22.57;77.07
45369;BME280;51342;55.250;37.668;2023-07-28T10:24:54;98178.34;;;22.62;76.69
45369;BME280;51342;55.250;37.668;2023-07-28T10:30:04;98158.13;;;22.62;75.82
45369;BME280;51342;55.250;37.668;2023-07-28T10:32:45;98151.13;;;22.61;75.34
45369;BME280;51342;55.250;37.668;2023-07-28T10:37:49;98105.25;;;22.71;74.88
45369;BME280;51342;55.250;37.668;2023-07-28T10:42:55;98109.47;;;22.82;76.36
45369;BME280;51342;55.250;37.668;2023-07-28T10:45:29;98111.19;;;22.84;75.07
45369;BME280;51342;55.250;37.668;2023-07-28T10:48:01;98076.88;;;22.89;75.52
45369;BME280;51342;55.250;37.668;2023-07-28T10:50:34;98043.56;;;22.82;74.88
45369;BME280;51342;55.250;37.668;2023-07-28T10:53:05;98087.56;;;22.78;75.02
45369;BME280;51342;55.250;37.668;2023-07-28T10:55:39;98164.09;;;22.75;76.01
45369;BME280;51342;55.250;37.668;2023-07-28T10:58:11;98179.81;;;22.80;76.13
45369;BME280;51342;55.250;37.668;2023-07-28T11:00:42;98192.09;;;22.82;76.93
45369;BME280;51342;55.250;37.668;2023-07-28T11:03:14;98193.84;;;22.83;77.25
45369;BME280;51342;55.250;37.668;2023-07-28T11:05:48;98209.63;;;22.86;77.01
45369;BME280;51342;55.250;37.668;2023-07-28T11:08:20;98213.09;;;22.90;76.93
45369;BME280;51342;55.250;37.668;2023-07-28T11:10:52;98205.16;;;22.93;77.22
45369;BME280;51342;55.250;37.668;2023-07-28T11:13:23;98208.59;;;22.96;77.11
45369;BME280;51342;55.250;37.668;2023-07-28T11:15:57;98206.75;;;23.03;76.93
45369;BME280;51342;55.250;37.668;2023-07-28T11:22:19;98218.00;;;23.13;76.91
45369;BME280;51342;55.250;37.668;2023-07-28T11:24:51;98239.00;;;23.20;76.26
45369;BME280;51342;55.250;37.668;2023-07-28T11:27:24;98246.00;;;23.21;76.89
45369;BME280;51342;55.250;37.668;2023-07-28T11:29:56;98264.34;;;23.29;76.52
45369;BME280;51342;55.250;37.668;2023-07-28T11:32:28;98272.22;;;23.32;76.74
45369;BME280;51342;55.250;37.668;2023-07-28T11:35:07;98274.84;;;23.31;76.50
45369;BME280;51342;55.250;37.668;2023-07-28T11:37:42;98283.59;;;23.34;76.43
45369;BME280;51342;55.250;37.668;2023-07-28T11:40:15;98285.41;;;23.32;75.75
45369;BME280;51342;55.250;37.668;2023-07-28T11:42:50;98284.63;;;23.25;76.36
45369;BME280;51342;55.250;37.668;2023-07-28T11:45:23;98289.97;;;23.22;75.76
45369;BME280;51342;55.250;37.668;2023-07-28T11:47:59;98300.50;;;23.22;76.28
45369;BME280;51342;55.250;37.668;2023-07-28T11:50:39;98307.63;;;23.17;76.04
45369;BME280;51342;55.250;37.668;2023-07-28T11:53:11;98303.28;;;23.13;76.51
45369;BME280;51342;55.250;37.668;2023-07-28T11:55:43;98322.75;;;23.06;75.47
45369;BME280;51342;55.250;37.668;2023-07-28T11:58:14;98324.56;;;23.01;75.64
45369;BME280;51342;55.250;37.668;2023-07-28T12:00:46;98342.22;;;22.96;75.94
45369;BME280;51342;55.250;37.668;2023-07-28T12:03:18;98344.13;;;22.88;75.89
45369;BME280;51342;55.250;37.668;2023-07-28T12:06:05;98335.47;;;22.73;75.68
45369;BME280;51342;55.250;37.668;2023-07-28T12:08:41;98337.22;;;22.74;76.38
45369;BME280;51342;55.250;37.668;2023-07-28T12:11:14;98333.69;;;22.74;76.08
45369;BME280;51342;55.250;37.668;2023-07-28T12:13:50;98329.44;;;22.65;76.33
45369;BME280;51342;55.250;37.668;2023-07-28T12:16:41;98339.19;;;22.57;76.35
45369;BME280;51342;55.250;37.668;2023-07-28T12:19:19;98347.13;;;22.56;76.99
45369;BME280;51342;55.250;37.668;2023-07-28T12:21:50;98350.63;;;22.58;76.98
45369;BME280;51342;55.250;37.668;2023-07-28T12:24:22;98352.44;;;22.54;77.52
45369;BME280;51342;55.250;37.668;2023-07-28T12:26:55;98355.97;;;22.53;77.45
45369;BME280;51342;55.250;37.668;2023-07-28T12:29:26;98353.28;;;22.55;77.86
45369;BME280;51342;55.250;37.668;2023-07-28T12:31:58;98367.34;;;22.55;77.49
45369;BME280;51342;55.250;37.668;2023-07-28T12:34:30;98359.47;;;22.54;77.49
45369;BME280;51342;55.250;37.668;2023-07-28T12:37:02;98368.25;;;22.51;77.59
45369;BME280;51342;55.250;37.668;2023-07-28T12:39:37;98375.34;;;22.46;77.18
45369;BME280;51342;55.250;37.668;2023-07-28T12:42:12;98368.41;;;22.42;76.92
45369;BME280;51342;55.250;37.668;2023-07-28T12:44:44;98372.84;;;22.37;76.80
45369;BME280;51342;55.250;37.668;2023-07-28T12:47:16;98373.78;;;22.28;77.15
45369;BME280;51342;55.250;37.668;2023-07-28T12:49:48;98380.91;;;22.21;76.84
45369;BME280;51342;55.250;37.668;2023-07-28T12:52:19;98389.75;;;22.16;76.66
45369;BME280;51342;55.250;37.668;2023-07-28T12:54:51;98362.59;;;22.08;76.56
45369;BME280;51342;55.250;37.668;2023-07-28T12:57:23;98326.69;;;21.94;76.94
45369;BME280;51342;55.250;37.668;2023-07-28T12:59:54;98332.03;;;21.88;76.99
45369;BME280;51342;55.250;37.668;2023-07-28T13:02:26;98335.59;;;21.84;77.40
45369;BME280;51342;55.250;37.668;2023-07-28T13:04:58;98325.06;;;21.84;77.40
45369;BME280;51342;55.250;37.668;2023-07-28T13:07:30;98331.22;;;21.82;77.08
45369;BME280;51342;55.250;37.668;2023-07-28T13:10:02;98322.53;;;21.74;76.44
45369;BME280;51342;55.250;37.668;2023-07-28T13:12:34;98310.31;;;21.66;75.69
45369;BME280;51342;55.250;37.668;2023-07-28T13:15:06;98290.25;;;21.56;74.81
45369;BME280;51342;55.250;37.668;2023-07-28T13:17:38;98282.47;;;21.41;75.23
45369;BME280;51342;55.250;37.668;2023-07-28T13:23:56;98282.03;;;20.82;76.58
45369;BME280;51342;55.250;37.668;2023-07-28T13:34:27;98263.66;;;20.76;75.49
45369;BME280;51342;55.250;37.668;2023-07-28T13:40:59;98240.97;;;20.61;75.69
45369;BME280;51342;55.250;37.668;2023-07-28T13:43:32;98266.34;;;20.62;75.21
45369;BME280;51342;55.250;37.668;2023-07-28T13:50:05;98301.47;;;20.49;76.02
45369;BME280;51342;55.250;37.668;2023-07-28T13:56:38;98337.38;;;20.46;76.16
45369;BME280;51342;55.250;37.668;2023-07-28T13:59:10;98337.38;;;20.50;76.42
45369;BME280;51342;55.250;37.668;2023-07-28T14:05:41;98319.84;;;20.40;76.90
45369;BME280;51342;55.250;37.668;2023-07-28T14:08:13;98334.72;;;20.44;77.04
45369;BME280;51342;55.250;37.668;2023-07-28T14:14:45;98343.50;;;20.40;76.58
45369;BME280;51342;55.250;37.668;2023-07-28T14:21:16;98399.56;;;20.39;77.07
45369;BME280;51342;55.250;37.668;2023-07-28T14:23:48;98399.56;;;20.42;75.50
45369;BME280;51342;55.250;37.668;2023-07-28T14:30:19;98399.56;;;20.31;76.32
45369;BME280;51342;55.250;37.668;2023-07-28T14:36:51;98410.09;;;20.22;76.22
45369;BME280;51342;55.250;37.668;2023-07-28T14:39:24;98414.44;;;20.25;76.21